createdAt,value
2022-11-21T00:01:18.262Z,5.15
2022-11-21T00:03:45.907Z,5.06
2022-11-21T00:06:13.341Z,4.83
2022-11-21T00:08:40.869Z,4.67
2022-11-21T00:11:08.507Z,4.82
2022-11-21T00:13:35.906Z,4.73
2022-11-21T00:16:05.146Z,4.66
2022-11-21T00:18:34.547Z,4.68
2022-11-21T00:21:11.565Z,4.67
2022-11-21T00:23:39.145Z,4.75
2022-11-21T00:26:07.414Z,4.81
2022-11-21T00:28:35.035Z,4.97
2022-11-21T00:31:03.558Z,5.04
2022-11-21T00:33:31.666Z,5.01
2022-11-21T00:35:59.013Z,5.02
2022-11-21T00:38:27.492Z,5.07
2022-11-21T00:40:54.839Z,5.04
2022-11-21T00:43:22.225Z,4.95
2022-11-21T00:45:49.786Z,4.94
2022-11-21T00:48:17.118Z,4.86
2022-11-21T00:50:44.394Z,4.94
2022-11-21T00:53:11.983Z,4.88
2022-11-21T00:55:39.335Z,4.94
2022-11-21T00:58:06.692Z,4.84
2022-11-21T01:00:34.359Z,4.73
2022-11-21T01:03:01.675Z,4.55
2022-11-21T01:05:29.001Z,4.60
2022-11-21T01:07:56.613Z,4.78
2022-11-21T01:10:24.150Z,4.91
2022-11-21T01:12:51.430Z,4.87
2022-11-21T01:15:18.990Z,4.90
2022-11-21T01:17:46.358Z,4.88
2022-11-21T01:20:14.536Z,4.92
2022-11-21T01:22:42.140Z,4.86
2022-11-21T01:25:09.602Z,4.78
2022-11-21T01:27:36.876Z,4.74
2022-11-21T01:30:04.952Z,4.60
2022-11-21T01:32:32.334Z,4.66
2022-11-21T01:34:59.743Z,4.71
2022-11-21T01:37:27.415Z,4.66
2022-11-21T01:39:55.172Z,4.65
2022-11-21T01:42:22.561Z,4.68
2022-11-21T01:44:53.411Z,4.58
2022-11-21T01:47:22.726Z,4.56
2022-11-21T01:49:52.483Z,4.60
2022-11-21T01:52:25.432Z,4.63
2022-11-21T01:55:03.133Z,4.43
2022-11-21T01:57:57.133Z,4.52
2022-11-21T02:00:27.006Z,4.59
2022-11-21T02:02:58.308Z,4.58
2022-11-21T02:05:28.577Z,4.45
2022-11-21T02:07:58.951Z,4.44
2022-11-21T02:10:27.112Z,4.52
2022-11-21T02:12:56.911Z,4.58
2022-11-21T02:15:27.070Z,4.45
2022-11-21T02:17:54.801Z,4.46
2022-11-21T02:20:25.045Z,4.47
2022-11-21T02:23:11.093Z,4.45
2022-11-21T02:25:41.456Z,4.41
2022-11-21T02:28:15.260Z,4.42
2022-11-21T02:30:43.587Z,4.51
2022-11-21T02:33:11.519Z,4.35
2022-11-21T02:35:39.099Z,4.34
2022-11-21T02:38:10.116Z,4.38
2022-11-21T02:40:43.945Z,4.48
2022-11-21T02:43:21.926Z,4.45
2022-11-21T02:45:49.359Z,4.29
2022-11-21T02:48:16.912Z,4.34
2022-11-21T02:50:46.094Z,4.46
2022-11-21T02:53:15.734Z,4.45
2022-11-21T02:55:43.924Z,4.47
2022-11-21T02:58:11.843Z,4.51
2022-11-21T03:00:40.505Z,4.22
2022-11-21T03:03:08.691Z,4.31
2022-11-21T03:05:36.112Z,4.30
2022-11-21T03:08:03.773Z,4.33
2022-11-21T03:10:31.400Z,4.34
2022-11-21T03:13:01.806Z,4.15
2022-11-21T03:15:32.025Z,4.32
2022-11-21T03:18:03.462Z,4.17
2022-11-21T03:20:32.481Z,4.27
2022-11-21T03:23:00.105Z,4.15
2022-11-21T03:25:28.067Z,4.33
2022-11-21T03:27:55.550Z,4.25
2022-11-21T03:30:24.707Z,4.20
2022-11-21T03:32:55.366Z,4.27
2022-11-21T03:35:23.162Z,4.03
2022-11-21T03:37:50.583Z,4.28
2022-11-21T03:40:17.992Z,4.28
2022-11-21T03:42:45.537Z,4.35
2022-11-21T03:45:12.866Z,4.22
2022-11-21T03:47:40.192Z,4.10
2022-11-21T03:50:08.083Z,4.17
2022-11-21T03:52:35.379Z,4.20
2022-11-21T03:55:02.962Z,4.20
2022-11-21T03:57:30.579Z,4.30
2022-11-21T03:59:57.926Z,4.18
2022-11-21T04:02:25.210Z,4.06
2022-11-21T04:04:52.815Z,4.35
2022-11-21T04:07:20.251Z,4.37
2022-11-21T04:09:47.651Z,4.27
2022-11-21T04:12:15.260Z,4.35
2022-11-21T04:14:42.539Z,4.25
2022-11-21T04:17:10.051Z,4.36
2022-11-21T04:19:37.730Z,4.34
2022-11-21T04:22:05.289Z,4.33
2022-11-21T04:24:32.633Z,4.29
2022-11-21T04:27:00.176Z,4.29
2022-11-21T04:29:27.544Z,4.28
2022-11-21T04:31:54.886Z,4.31
2022-11-21T04:34:22.551Z,4.20
2022-11-21T04:36:49.922Z,4.17
2022-11-21T04:39:17.293Z,4.19
2022-11-21T04:41:44.899Z,4.24
2022-11-21T04:44:12.257Z,4.20
2022-11-21T04:46:39.585Z,4.18
2022-11-21T04:49:07.189Z,4.28
2022-11-21T04:51:34.544Z,4.14
2022-11-21T04:54:01.902Z,4.14
2022-11-21T04:56:29.542Z,4.14
2022-11-21T04:58:56.858Z,4.12
2022-11-21T05:01:24.226Z,4.02
2022-11-21T05:03:52.779Z,4.06
2022-11-21T05:06:20.141Z,4.00
2022-11-21T05:08:52.111Z,3.99
2022-11-21T05:11:39.982Z,4.10
2022-11-21T05:14:07.308Z,4.10
2022-11-21T05:16:35.203Z,4.17
2022-11-21T05:19:02.492Z,4.27
2022-11-21T05:21:30.093Z,4.37
2022-11-21T05:23:57.649Z,4.45
2022-11-21T05:26:24.969Z,4.54
2022-11-21T05:28:52.251Z,4.37
2022-11-21T05:31:19.874Z,4.36
2022-11-21T05:33:47.194Z,3.99
2022-11-21T05:36:14.464Z,4.25
2022-11-21T05:38:42.084Z,4.29
2022-11-21T05:41:09.849Z,4.46
2022-11-21T05:43:45.721Z,4.53
2022-11-21T05:46:14.701Z,4.67
2022-11-21T05:48:42.264Z,4.69
2022-11-21T05:51:09.874Z,4.66
2022-11-21T05:53:37.653Z,4.54
2022-11-21T05:56:10.782Z,4.45
2022-11-21T05:58:39.095Z,4.43
2022-11-21T06:01:07.193Z,4.55
2022-11-21T06:03:37.260Z,4.57
2022-11-21T06:06:16.966Z,4.52
2022-11-21T06:08:47.541Z,4.39
2022-11-21T06:11:16.588Z,4.39
2022-11-21T06:13:44.521Z,4.35
2022-11-21T06:16:14.717Z,4.48
2022-11-21T06:18:44.214Z,4.47
2022-11-21T06:21:15.825Z,4.42
2022-11-21T06:23:43.593Z,4.19
2022-11-21T06:26:16.162Z,4.36
2022-11-21T06:28:44.777Z,4.34
2022-11-21T06:31:16.930Z,4.60
2022-11-21T06:33:44.560Z,4.79
2022-11-21T06:36:16.888Z,4.55
2022-11-21T06:38:44.478Z,4.66
2022-11-21T06:41:19.493Z,4.33
2022-11-21T06:43:47.041Z,4.09
2022-11-21T06:46:15.182Z,3.51
2022-11-21T06:48:43.132Z,3.92
2022-11-21T06:51:17.317Z,4.24
2022-11-21T06:53:45.417Z,4.21
2022-11-21T06:56:12.745Z,4.22
2022-11-21T06:58:40.073Z,4.17
2022-11-21T07:01:09.506Z,4.24
2022-11-21T07:03:37.377Z,4.29
2022-11-21T07:06:05.053Z,4.43
2022-11-21T07:08:36.001Z,4.61
2022-11-21T07:13:53.160Z,4.78
2022-11-21T07:16:20.492Z,5.11
2022-11-21T07:18:47.847Z,5.21
2022-11-21T07:21:15.425Z,5.37
2022-11-21T07:23:42.760Z,5.36
2022-11-21T07:26:10.459Z,5.36
2022-11-21T07:28:38.326Z,5.44
2022-11-21T07:31:11.686Z,5.28
2022-11-21T07:33:43.093Z,5.41
2022-11-21T07:36:11.568Z,5.15
2022-11-21T07:38:38.977Z,5.18
2022-11-21T07:41:06.546Z,5.33
2022-11-21T07:43:33.818Z,5.14
2022-11-21T07:46:01.160Z,5.00
2022-11-21T07:48:28.735Z,5.09
2022-11-21T07:50:56.039Z,5.29
2022-11-21T07:53:24.201Z,5.33
2022-11-21T07:55:51.762Z,5.25
2022-11-21T07:58:19.058Z,5.39
2022-11-21T08:00:46.394Z,5.08
2022-11-21T08:03:14.006Z,5.50
2022-11-21T08:05:43.259Z,5.61
2022-11-21T08:08:14.078Z,5.59
2022-11-21T08:10:43.623Z,5.66
2022-11-21T08:13:11.737Z,5.31
2022-11-21T08:15:39.284Z,5.74
2022-11-21T08:18:10.817Z,5.77
2022-11-21T08:20:38.574Z,6.03
2022-11-21T08:23:06.564Z,5.88
2022-11-21T08:25:34.683Z,5.78
2022-11-21T08:28:02.921Z,5.69
2022-11-21T08:30:30.837Z,5.91
2022-11-21T08:32:59.207Z,6.03
2022-11-21T08:35:26.980Z,6.26
2022-11-21T08:37:58.398Z,6.17
2022-11-21T08:40:27.848Z,5.93
2022-11-21T08:43:06.895Z,5.94
2022-11-21T08:45:36.032Z,6.30
2022-11-21T08:48:03.632Z,6.56
2022-11-21T08:50:32.075Z,6.30
2022-11-21T08:53:01.472Z,5.88
2022-11-21T08:55:29.283Z,5.99
2022-11-21T08:57:56.645Z,6.05
2022-11-21T09:00:24.467Z,6.18
2022-11-21T09:02:51.830Z,5.91
2022-11-21T09:05:19.207Z,5.75
2022-11-21T09:07:47.557Z,5.41
2022-11-21T09:10:15.334Z,5.70
2022-11-21T09:12:43.276Z,5.74
2022-11-21T09:15:30.075Z,5.61
2022-11-21T09:18:04.405Z,5.70
2022-11-21T09:20:34.172Z,5.15
2022-11-21T09:23:10.148Z,5.24
2022-11-21T09:25:37.726Z,5.32
2022-11-21T09:28:07.007Z,5.12
2022-11-21T09:30:34.658Z,5.61
2022-11-21T09:33:06.489Z,5.44
2022-11-21T09:35:33.876Z,5.59
2022-11-21T09:38:01.225Z,5.67
2022-11-21T09:40:30.338Z,5.43
2022-11-21T09:43:06.668Z,5.23
2022-11-21T09:45:35.132Z,4.90
2022-11-21T09:48:11.865Z,5.10
2022-11-21T09:50:42.950Z,5.42
2022-11-21T09:53:15.083Z,5.55
2022-11-21T09:55:52.234Z,5.66
2022-11-21T09:58:25.307Z,5.76
2022-11-21T10:00:53.564Z,5.71
2022-11-21T10:03:29.301Z,5.74
2022-11-21T10:06:01.820Z,5.81
2022-11-21T10:08:42.848Z,5.68
2022-11-21T10:11:34.689Z,5.93
2022-11-21T10:14:09.836Z,5.79
2022-11-21T10:16:57.258Z,5.86
2022-11-21T10:19:38.272Z,6.13
2022-11-21T10:22:17.901Z,6.41
2022-11-21T10:25:17.557Z,6.56
2022-11-21T10:27:51.701Z,6.80
2022-11-21T10:30:21.010Z,7.16
2022-11-21T10:32:57.475Z,7.43
2022-11-21T10:35:34.222Z,7.47
2022-11-21T10:38:03.112Z,7.48
2022-11-21T10:40:49.290Z,7.56
2022-11-21T10:43:41.353Z,7.58
2022-11-21T10:46:09.598Z,7.79
2022-11-21T10:48:36.896Z,7.92
2022-11-21T10:51:13.073Z,8.13
2022-11-21T10:54:04.559Z,8.25
2022-11-21T10:56:35.070Z,8.24
2022-11-21T10:59:12.307Z,8.40
2022-11-21T11:01:39.715Z,8.41
2022-11-21T11:07:00.159Z,8.36
2022-11-21T11:09:30.978Z,8.04
2022-11-21T11:12:22.987Z,8.30
2022-11-21T11:14:56.270Z,8.37
2022-11-21T11:17:29.024Z,8.37
2022-11-21T11:20:01.326Z,8.51
2022-11-21T11:22:30.347Z,8.75
2022-11-21T11:25:00.728Z,8.75
2022-11-21T11:27:29.592Z,8.87
2022-11-21T11:29:56.907Z,8.82
2022-11-21T11:32:24.782Z,8.93
2022-11-21T11:35:01.298Z,8.88
2022-11-21T11:37:47.078Z,9.05
2022-11-21T11:40:41.637Z,9.23
2022-11-21T11:43:47.170Z,9.18
2022-11-21T11:46:45.422Z,9.23
2022-11-21T11:49:21.131Z,9.10
2022-11-21T11:51:54.729Z,9.14
2022-11-21T11:54:26.855Z,9.49
2022-11-21T11:56:54.279Z,9.30
2022-11-21T11:59:41.397Z,9.22
2022-11-21T12:02:44.273Z,9.30
2022-11-21T12:05:19.047Z,9.28
2022-11-21T12:08:39.662Z,9.48
2022-11-21T12:11:10.105Z,9.88
2022-11-21T12:13:37.659Z,9.78
2022-11-21T12:16:13.222Z,9.82
2022-11-21T12:18:58.994Z,9.73
2022-11-21T12:21:26.731Z,9.80
2022-11-21T12:23:55.885Z,9.92
2022-11-21T12:26:37.695Z,9.92
2022-11-21T12:29:37.122Z,10.07
2022-11-21T12:32:16.477Z,10.27
2022-11-21T12:35:01.741Z,10.42
2022-11-21T12:37:38.215Z,10.39
2022-11-21T12:40:43.053Z,10.35
2022-11-21T12:43:41.022Z,10.30
2022-11-21T12:46:23.866Z,10.11
2022-11-21T12:49:15.991Z,10.13
2022-11-21T12:52:17.474Z,10.10
2022-11-21T12:54:58.276Z,9.88
2022-11-21T12:57:50.510Z,9.85
2022-11-21T13:00:44.704Z,9.90
2022-11-21T13:03:28.157Z,9.64
2022-11-21T13:05:56.064Z,9.75
2022-11-21T13:08:27.394Z,9.63
2022-11-21T13:11:28.210Z,9.55
2022-11-21T13:14:25.255Z,9.67
2022-11-21T13:17:07.522Z,9.85
2022-11-21T13:19:37.430Z,9.75
2022-11-21T13:22:04.792Z,9.60
2022-11-21T13:24:44.226Z,9.55
2022-11-21T13:27:36.772Z,9.31
2022-11-21T13:30:08.836Z,9.30
2022-11-21T13:32:47.301Z,9.15
2022-11-21T13:35:14.953Z,9.41
2022-11-21T13:38:02.866Z,9.45
2022-11-21T13:40:30.188Z,9.29
2022-11-21T13:45:59.091Z,9.20
2022-11-21T13:49:02.262Z,9.38
2022-11-21T13:51:38.747Z,9.22
2022-11-21T13:54:38.753Z,9.16
2022-11-21T13:57:24.876Z,9.28
2022-11-21T14:00:22.532Z,9.22
2022-11-21T14:03:11.650Z,9.13
2022-11-21T14:06:03.633Z,8.97
2022-11-21T14:08:31.439Z,9.06
2022-11-21T14:10:58.918Z,8.97
2022-11-21T14:13:30.077Z,9.02
2022-11-21T14:16:41.266Z,8.98
2022-11-21T14:19:14.845Z,9.27
2022-11-21T14:21:45.965Z,9.08
2022-11-21T14:24:19.269Z,9.32
2022-11-21T14:26:49.352Z,9.14
2022-11-21T14:29:22.726Z,9.05
2022-11-21T14:31:50.948Z,9.00
2022-11-21T14:34:29.636Z,8.80
2022-11-21T14:37:03.079Z,8.77
2022-11-21T14:39:39.013Z,8.85
2022-11-21T14:42:13.747Z,8.80
2022-11-21T14:44:41.144Z,8.84
2022-11-21T14:47:25.081Z,8.91
2022-11-21T14:49:55.570Z,8.88
2022-11-21T14:52:33.545Z,8.96
2022-11-21T14:57:55.183Z,8.81
2022-11-21T15:00:57.394Z,8.38
2022-11-21T15:03:30.913Z,8.65
2022-11-21T15:06:04.617Z,8.69
2022-11-21T15:11:24.055Z,8.54
2022-11-21T15:14:14.903Z,8.40
2022-11-21T15:16:43.637Z,8.50
2022-11-21T15:19:11.332Z,8.68
2022-11-21T15:21:46.144Z,8.61
2022-11-21T15:24:33.042Z,8.56
2022-11-21T15:27:00.850Z,8.78
2022-11-21T15:29:32.325Z,8.88
2022-11-21T15:32:15.715Z,8.52
2022-11-21T15:34:44.257Z,8.52
2022-11-21T15:37:18.434Z,8.04
2022-11-21T15:39:48.281Z,8.23
2022-11-21T15:42:34.414Z,8.36
2022-11-21T15:45:21.191Z,8.55
2022-11-21T15:47:49.184Z,8.37
2022-11-21T15:50:17.262Z,8.35
2022-11-21T15:52:46.407Z,8.35
2022-11-21T15:55:25.948Z,8.56
2022-11-21T15:57:53.518Z,8.54
2022-11-21T16:00:20.860Z,8.70
2022-11-21T16:02:48.442Z,8.38
2022-11-21T16:05:16.005Z,8.65
2022-11-21T16:07:43.435Z,8.91
2022-11-21T16:10:18.308Z,9.01
2022-11-21T16:12:49.101Z,9.01
2022-11-21T16:15:16.739Z,9.33
2022-11-21T16:17:45.604Z,9.17
2022-11-21T16:20:13.272Z,9.11
2022-11-21T16:22:45.866Z,9.09
2022-11-21T16:25:15.794Z,8.95
2022-11-21T16:27:43.538Z,8.82
2022-11-21T16:30:11.694Z,8.79
2022-11-21T16:32:38.977Z,8.60
2022-11-21T16:35:07.365Z,8.76
2022-11-21T16:37:34.978Z,8.48
2022-11-21T16:40:02.497Z,8.56
2022-11-21T16:42:30.111Z,8.64
2022-11-21T16:44:57.471Z,8.59
2022-11-21T16:47:24.831Z,8.50
2022-11-21T16:49:52.458Z,8.57
2022-11-21T16:52:19.887Z,8.58
2022-11-21T16:54:47.370Z,8.55
2022-11-21T16:57:15.115Z,8.55
2022-11-21T16:59:42.518Z,8.41
2022-11-21T17:02:10.754Z,8.33
2022-11-21T17:04:38.354Z,8.28
2022-11-21T17:07:06.061Z,8.32
2022-11-21T17:09:33.572Z,8.31
2022-11-21T17:12:01.187Z,8.26
2022-11-21T17:14:28.892Z,8.07
2022-11-21T17:16:56.521Z,7.99
2022-11-21T17:19:24.084Z,7.99
2022-11-21T17:21:52.483Z,8.07
2022-11-21T17:24:19.839Z,8.07
2022-11-21T17:26:47.419Z,8.11
2022-11-21T17:29:14.872Z,8.02
2022-11-21T17:31:42.662Z,8.10
2022-11-21T17:34:10.341Z,8.10
2022-11-21T17:36:37.862Z,7.99
2022-11-21T17:39:05.165Z,7.96
2022-11-21T17:41:32.774Z,7.94
2022-11-21T17:44:01.118Z,7.84
2022-11-21T17:46:28.766Z,7.84
2022-11-21T17:48:58.967Z,7.76
2022-11-21T17:51:29.289Z,7.81
2022-11-21T17:53:56.925Z,7.80
2022-11-21T17:56:26.538Z,7.84
2022-11-21T17:58:54.173Z,7.69
2022-11-21T18:01:22.329Z,7.85
2022-11-21T18:04:14.682Z,7.81
2022-11-21T18:06:42.548Z,7.79
2022-11-21T18:09:11.254Z,7.86
2022-11-21T18:11:40.555Z,7.82
2022-11-21T18:14:10.304Z,7.93
2022-11-21T18:16:39.435Z,7.84
2022-11-21T18:19:09.199Z,7.76
2022-11-21T18:21:36.606Z,7.59
2022-11-21T18:24:04.276Z,7.69
2022-11-21T18:26:33.885Z,7.85
2022-11-21T18:29:28.673Z,7.75
2022-11-21T18:31:50.201Z,7.90
2022-11-21T18:34:17.582Z,7.93
2022-11-21T18:36:45.229Z,7.78
2022-11-21T18:39:15.281Z,7.49
2022-11-21T18:41:43.139Z,7.58
2022-11-21T18:44:11.382Z,7.71
2022-11-21T18:46:40.454Z,7.62
2022-11-21T18:49:08.586Z,7.58
2022-11-21T18:51:36.886Z,7.52
2022-11-21T18:54:08.372Z,7.46
2022-11-21T18:56:38.261Z,7.57
2022-11-21T18:59:06.461Z,7.80
2022-11-21T19:01:36.026Z,7.75
2022-11-21T19:04:03.613Z,7.75
2022-11-21T19:06:31.317Z,7.61
2022-11-21T19:08:58.900Z,7.47
2022-11-21T19:11:28.515Z,7.43
2022-11-21T19:13:57.172Z,7.42
2022-11-21T19:16:25.847Z,7.46
2022-11-21T19:21:43.832Z,7.63
2022-11-21T19:24:15.510Z,7.45
2022-11-21T19:26:42.904Z,7.67
2022-11-21T19:29:11.100Z,7.83
2022-11-21T19:31:44.526Z,7.73
2022-11-21T19:34:14.112Z,7.84
2022-11-21T19:36:42.375Z,7.55
2022-11-21T19:39:09.754Z,7.59
2022-11-21T19:41:37.644Z,7.64
2022-11-21T19:44:05.020Z,7.69
2022-11-21T19:46:34.383Z,7.74
2022-11-21T19:49:01.953Z,7.80
2022-11-21T19:51:35.015Z,7.62
2022-11-21T19:54:04.436Z,7.57
2022-11-21T19:56:32.097Z,7.57
2022-11-21T19:58:59.396Z,7.51
2022-11-21T20:01:29.056Z,7.56
2022-11-21T20:03:59.621Z,7.55
2022-11-21T20:06:29.285Z,7.45
2022-11-21T20:09:01.646Z,7.52
2022-11-21T20:11:30.166Z,7.56
2022-11-21T20:13:58.439Z,7.41
2022-11-21T20:16:31.074Z,7.46
2022-11-21T20:19:00.782Z,7.52
2022-11-21T20:21:28.875Z,7.54
2022-11-21T20:23:56.693Z,7.61
2022-11-21T20:26:25.181Z,7.61
2022-11-21T20:28:53.326Z,7.75
2022-11-21T20:31:22.882Z,7.88
2022-11-21T20:33:52.481Z,7.69
2022-11-21T20:36:21.780Z,7.76
2022-11-21T20:38:53.780Z,7.65
2022-11-21T20:41:23.065Z,7.61
2022-11-21T20:46:43.020Z,7.57
2022-11-21T20:49:10.811Z,7.55
2022-11-21T20:54:26.839Z,7.37
2022-11-21T20:56:54.324Z,7.35
2022-11-21T20:59:21.636Z,7.23
2022-11-21T21:01:49.258Z,7.22
2022-11-21T21:04:17.012Z,7.18
2022-11-21T21:06:44.317Z,7.29
2022-11-21T21:09:11.945Z,7.17
2022-11-21T21:11:54.651Z,7.14
2022-11-21T21:14:22.543Z,7.20
2022-11-21T21:16:50.343Z,7.13
2022-11-21T21:19:18.048Z,7.06
2022-11-21T21:21:45.660Z,7.04
2022-11-21T21:24:13.351Z,7.16
2022-11-21T21:26:43.791Z,7.21
2022-11-21T21:29:13.655Z,6.99
2022-11-21T21:31:46.810Z,7.31
2022-11-21T21:34:17.851Z,7.24
2022-11-21T21:36:45.286Z,7.16
2022-11-21T21:39:12.597Z,7.11
2022-11-21T21:41:44.203Z,7.17
2022-11-21T21:44:11.919Z,7.20
2022-11-21T21:46:39.545Z,7.34
2022-11-21T21:49:06.869Z,7.31
2022-11-21T21:51:35.935Z,7.31
2022-11-21T21:54:04.095Z,7.27
2022-11-21T21:56:31.487Z,7.34
2022-11-21T21:58:59.010Z,7.30
2022-11-21T22:01:31.069Z,7.34
2022-11-21T22:04:03.689Z,7.18
2022-11-21T22:06:33.368Z,7.15
2022-11-21T22:09:01.786Z,7.14
2022-11-21T22:11:31.396Z,7.11
2022-11-21T22:14:03.694Z,7.18
2022-11-21T22:16:31.860Z,7.22
2022-11-21T22:18:59.171Z,7.22
2022-11-21T22:21:34.436Z,7.24
2022-11-21T22:26:51.316Z,7.46
2022-11-21T22:29:18.942Z,7.27
2022-11-21T22:31:46.309Z,7.36
2022-11-21T22:34:14.347Z,7.36
2022-11-21T22:36:42.049Z,7.12
2022-11-21T22:39:09.605Z,7.41
2022-11-21T22:41:37.043Z,7.34
2022-11-21T22:44:04.822Z,7.30
2022-11-21T22:46:32.418Z,7.20
2022-11-21T22:48:59.759Z,7.22
2022-11-21T22:51:31.329Z,7.16
2022-11-21T22:53:58.698Z,7.31
2022-11-21T22:56:27.158Z,7.29
2022-11-21T22:58:54.887Z,7.31
2022-11-21T23:01:24.485Z,7.43
2022-11-21T23:03:52.518Z,7.44
2022-11-21T23:06:23.525Z,7.34
2022-11-21T23:08:52.325Z,7.18
2022-11-21T23:11:26.166Z,7.06
2022-11-21T23:13:55.420Z,7.17
2022-11-21T23:16:23.184Z,7.24
2022-11-21T23:18:54.482Z,7.07
2022-11-21T23:21:22.324Z,7.09
2022-11-21T23:23:50.060Z,7.38
2022-11-21T23:26:17.456Z,7.32
2022-11-21T23:28:44.964Z,7.26
2022-11-21T23:31:12.557Z,7.08
2022-11-21T23:33:39.968Z,7.24
2022-11-21T23:36:07.465Z,7.27
2022-11-21T23:38:35.099Z,7.24
2022-11-21T23:41:02.450Z,7.21
2022-11-21T23:43:29.730Z,7.13
2022-11-21T23:45:57.322Z,7.22
2022-11-21T23:48:24.737Z,7.11
2022-11-21T23:50:52.364Z,7.08
2022-11-21T23:53:20.659Z,7.08
2022-11-21T23:55:48.452Z,7.16
2022-11-21T23:58:16.368Z,7.05
